Time;durP1;ratioP1;P1;durP2;ratioP2;P2;SDS_P1;SDS_P2;PMS_P1;PMS_P2;Temp;Humidity;BMP_temperature;BMP_pressure;BME280_temperature;BME280_humidity;BME280_pressure;Samples;Min_cycle;Max_cycle;Signal;HPM_P1;HPM_P2
2024/02/05 00:00:11;;;;;;;0.10;0.10;;;;;;;;;;4995236;28;20493;-85
2024/02/05 00:02:41;;;;;;;0.30;0.30;;;;;;;;;;4996054;28;20049;-85
2024/02/05 00:05:08;;;;;;;0.10;0.10;;;;;;;;;;5011537;28;20390;-85
2024/02/05 00:07:34;;;;;;;0.68;0.20;;;;;;;;;;4995012;28;20494;-85
2024/02/05 00:10:00;;;;;;;0.10;0.10;;;;;;;;;;4995058;28;20041;-84
2024/02/05 00:12:26;;;;;;;0.52;0.52;;;;;;;;;;5010840;28;20041;-85
2024/02/05 00:14:52;;;;;;;0.20;0.20;;;;;;;;;;4995184;28;20049;-85
2024/02/05 00:17:18;;;;;;;1.20;0.45;;;;;;;;;;4995118;28;20038;-86
2024/02/05 00:19:44;;;;;;;0.20;0.20;;;;;;;;;;4995033;28;20129;-85
2024/02/05 00:22:10;;;;;;;0.47;0.47;;;;;;;;;;4994946;28;20236;-85
2024/02/05 00:24:36;;;;;;;0.20;0.20;;;;;;;;;;4995110;28;20080;-84
2024/02/05 00:27:02;;;;;;;0.10;0.10;;;;;;;;;;4994854;28;20501;-84
2024/02/05 00:29:28;;;;;;;0.10;0.10;;;;;;;;;;4994950;28;20128;-84
2024/02/05 00:31:54;;;;;;;0.20;0.20;;;;;;;;;;4994775;28;20053;-84
2024/02/05 00:34:20;;;;;;;0.50;0.40;;;;;;;;;;4994958;28;20048;-85
2024/02/05 00:36:47;;;;;;;0.43;0.43;;;;;;;;;;5011196;28;20123;-84
2024/02/05 00:39:14;;;;;;;0.15;0.13;;;;;;;;;;5011319;28;20037;-84
2024/02/05 00:41:40;;;;;;;1.52;0.50;;;;;;;;;;4994905;28;20141;-85
2024/02/05 00:44:06;;;;;;;0.20;0.20;;;;;;;;;;4994731;28;20077;-85
2024/02/05 00:46:32;;;;;;;0.20;0.20;;;;;;;;;;4994680;28;20108;-85
2024/02/05 00:48:59;;;;;;;0.47;0.47;;;;;;;;;;5011274;28;20042;-84
2024/02/05 00:51:26;;;;;;;0.30;0.30;;;;;;;;;;5011183;28;20076;-84
2024/02/05 00:53:52;;;;;;;0.20;0.20;;;;;;;;;;4994834;28;20042;-84
2024/02/05 00:56:18;;;;;;;0.75;0.75;;;;;;;;;;5010961;28;20074;-84
2024/02/05 00:58:44;;;;;;;0.10;0.10;;;;;;;;;;4994757;28;20378;-85
2024/02/05 01:01:10;;;;;;;0.20;0.20;;;;;;;;;;4994534;28;20133;-85
2024/02/05 01:03:38;;;;;;;0.10;0.10;;;;;;;;;;5010940;28;20436;-84
2024/02/05 01:06:04;;;;;;;0.10;0.10;;;;;;;;;;4994504;28;20068;-84
2024/02/05 01:08:30;;;;;;;3.35;2.17;;;;;;;;;;4994418;28;20046;-84
2024/02/05 01:10:56;;;;;;;0.10;0.10;;;;;;;;;;5010617;28;20124;-83
2024/02/05 01:13:23;;;;;;;0.20;0.20;;;;;;;;;;4994494;28;20038;-85
2024/02/05 01:15:49;;;;;;;0.65;0.65;;;;;;;;;;4994868;28;20038;-84
2024/02/05 01:18:15;;;;;;;0.73;0.47;;;;;;;;;;4994395;28;20145;-84
2024/02/05 01:20:41;;;;;;;0.30;0.30;;;;;;;;;;4994358;28;20038;-84
2024/02/05 01:23:07;;;;;;;0.20;0.20;;;;;;;;;;5010707;28;20046;-84
2024/02/05 01:25:33;;;;;;;0.50;0.50;;;;;;;;;;5014252;28;20041;-83
2024/02/05 01:27:59;;;;;;;0.55;0.50;;;;;;;;;;5013984;28;20129;-85
2024/02/05 01:30:27;;;;;;;0.20;0.20;;;;;;;;;;4998165;28;20397;-85
2024/02/05 01:32:54;;;;;;;0.25;0.25;;;;;;;;;;5014617;28;20448;-84
2024/02/05 01:35:20;;;;;;;1.08;0.47;;;;;;;;;;4997932;28;20524;-84
2024/02/05 01:37:46;;;;;;;0.57;0.57;;;;;;;;;;5014007;28;20482;-84
2024/02/05 01:40:12;;;;;;;0.25;0.25;;;;;;;;;;4997993;28;20112;-84
2024/02/05 01:42:39;;;;;;;0.52;0.52;;;;;;;;;;4997663;28;20046;-85
2024/02/05 01:45:05;;;;;;;1.23;1.13;;;;;;;;;;4997802;28;20042;-84
2024/02/05 01:47:32;;;;;;;0.20;0.20;;;;;;;;;;4997513;28;20504;-84
2024/02/05 01:49:58;;;;;;;0.47;0.20;;;;;;;;;;4997531;28;20080;-84
2024/02/05 01:52:24;;;;;;;0.50;0.50;;;;;;;;;;5013932;28;20041;-84
2024/02/05 01:54:50;;;;;;;2.17;1.40;;;;;;;;;;4997466;28;20108;-84
2024/02/05 01:57:17;;;;;;;0.10;0.10;;;;;;;;;;4997308;28;20070;-83
2024/02/05 01:59:43;;;;;;;0.20;0.20;;;;;;;;;;4997656;28;20052;-84
2024/02/05 02:02:09;;;;;;;0.10;0.10;;;;;;;;;;4997648;28;20046;-83
2024/02/05 02:04:36;;;;;;;0.20;0.20;;;;;;;;;;5013972;28;20401;-84
2024/02/05 02:07:03;;;;;;;0.28;0.28;;;;;;;;;;4997237;28;20405;-84
2024/02/05 02:09:30;;;;;;;0.20;0.20;;;;;;;;;;5013873;28;20439;-83
2024/02/05 02:11:56;;;;;;;0.10;0.10;;;;;;;;;;5013473;28;20080;-84
2024/02/05 02:14:24;;;;;;;0.17;0.17;;;;;;;;;;5013473;28;20042;-84
2024/02/05 02:16:50;;;;;;;0.20;0.20;;;;;;;;;;4997084;28;20116;-85
2024/02/05 02:19:16;;;;;;;0.10;0.10;;;;;;;;;;4997080;28;20129;-84
2024/02/05 02:21:42;;;;;;;0.20;0.20;;;;;;;;;;5013131;28;20038;-84
2024/02/05 02:24:08;;;;;;;0.20;0.20;;;;;;;;;;5013157;28;20124;-84
2024/02/05 02:26:34;;;;;;;0.10;0.10;;;;;;;;;;4996853;28;20138;-84
2024/02/05 02:29:00;;;;;;;0.20;0.20;;;;;;;;;;4996838;28;20092;-84
2024/02/05 02:31:26;;;;;;;0.30;0.30;;;;;;;;;;4996889;28;20045;-84
2024/02/05 02:33:56;;;;;;;0.20;0.20;;;;;;;;;;4997073;28;20413;-84
2024/02/05 02:36:24;;;;;;;0.60;0.20;;;;;;;;;;4996412;28;20053;-83
2024/02/05 02:39:11;;;;;;;0.20;0.20;;;;;;;;;;5013160;28;20108;-83
2024/02/05 02:41:37;;;;;;;2.28;0.85;;;;;;;;;;4997340;28;20038;-83
2024/02/05 02:44:03;;;;;;;0.40;0.40;;;;;;;;;;5012788;28;20100;-83
2024/02/05 02:46:29;;;;;;;0.10;0.10;;;;;;;;;;5012816;28;20041;-84
2024/02/05 02:48:55;;;;;;;0.30;0.30;;;;;;;;;;4996625;28;20050;-83
2024/02/05 02:51:22;;;;;;;0.30;0.30;;;;;;;;;;4996417;28;20084;-83
2024/02/05 02:53:48;;;;;;;0.10;0.10;;;;;;;;;;4996441;28;20041;-82
2024/02/05 02:56:14;;;;;;;0.20;0.20;;;;;;;;;;4996356;28;20041;-83
2024/02/05 02:58:40;;;;;;;0.20;0.20;;;;;;;;;;4996330;28;20045;-84
2024/02/05 03:01:06;;;;;;;0.57;0.50;;;;;;;;;;4996191;28;20045;-84
2024/02/05 03:03:32;;;;;;;0.17;0.17;;;;;;;;;;4996320;28;20149;-84
2024/02/05 03:05:58;;;;;;;0.38;0.38;;;;;;;;;;4996199;28;20046;-84
2024/02/05 03:08:24;;;;;;;3.72;0.40;;;;;;;;;;4996125;28;20045;-84
2024/02/05 03:10:50;;;;;;;0.65;0.65;;;;;;;;;;4996293;28;20052;-84
2024/02/05 03:13:17;;;;;;;0.20;0.20;;;;;;;;;;5012164;28;20128;-84
2024/02/05 03:15:43;;;;;;;0.20;0.20;;;;;;;;;;4996068;28;20046;-83
2024/02/05 03:18:09;;;;;;;1.77;1.75;;;;;;;;;;4996073;28;20041;-83
2024/02/05 03:20:37;;;;;;;1.98;0.63;;;;;;;;;;4996031;28;20396;-83
2024/02/05 03:23:03;;;;;;;1.08;1.08;;;;;;;;;;5012676;28;20088;-83
2024/02/05 03:25:29;;;;;;;0.25;0.25;;;;;;;;;;5012476;28;20050;-83
2024/02/05 03:27:56;;;;;;;5.78;0.30;;;;;;;;;;4995735;28;20037;-83
2024/02/05 03:30:22;;;;;;;0.20;0.20;;;;;;;;;;4995667;28;20077;-84
2024/02/05 03:32:49;;;;;;;0.28;0.28;;;;;;;;;;4995790;28;20045;-84
2024/02/05 03:35:17;;;;;;;0.70;0.70;;;;;;;;;;4995692;28;20516;-84
2024/02/05 03:37:43;;;;;;;0.45;0.45;;;;;;;;;;4995955;28;20125;-84
2024/02/05 03:40:10;;;;;;;0.20;0.20;;;;;;;;;;4995569;28;20081;-84
2024/02/05 03:42:36;;;;;;;0.55;0.55;;;;;;;;;;4995797;28;20437;-84
2024/02/05 03:45:02;;;;;;;0.38;0.38;;;;;;;;;;4995845;28;20553;-84
2024/02/05 03:47:28;;;;;;;0.20;0.20;;;;;;;;;;4995304;28;20289;-84
2024/02/05 03:49:55;;;;;;;0.20;0.20;;;;;;;;;;5011610;28;20045;-84
2024/02/05 03:52:21;;;;;;;0.32;0.32;;;;;;;;;;4995821;28;20480;-84
2024/02/05 03:54:47;;;;;;;0.10;0.10;;;;;;;;;;4995143;28;20490;-84
2024/02/05 03:57:13;;;;;;;0.20;0.20;;;;;;;;;;4995140;28;20042;-84
2024/02/05 03:59:39;;;;;;;0.20;0.20;;;;;;;;;;4995520;28;20030;-84
2024/02/05 04:02:05;;;;;;;0.10;0.10;;;;;;;;;;5011419;28;20482;-84
2024/02/05 04:04:32;;;;;;;0.55;0.30;;;;;;;;;;5011602;28;20120;-83
2024/02/05 04:06:58;;;;;;;0.20;0.20;;;;;;;;;;4995117;28;20482;-84
2024/02/05 04:09:25;;;;;;;0.20;0.20;;;;;;;;;;4995133;28;20077;-84
2024/02/05 04:11:51;;;;;;;1.17;0.30;;;;;;;;;;4995039;28;20092;-83
2024/02/05 04:14:17;;;;;;;0.77;0.43;;;;;;;;;;5011579;28;20050;-83
2024/02/05 04:16:43;;;;;;;0.10;0.10;;;;;;;;;;4994986;28;20066;-83
2024/02/05 04:19:09;;;;;;;0.30;0.30;;;;;;;;;;4995256;28;20050;-84
2024/02/05 04:21:35;;;;;;;0.45;0.45;;;;;;;;;;4995147;28;20042;-83
2024/02/05 04:24:02;;;;;;;5.78;0.82;;;;;;;;;;4995100;28;20049;-82
2024/02/05 04:26:28;;;;;;;0.68;0.47;;;;;;;;;;4994923;28;20533;-83
2024/02/05 04:28:54;;;;;;;0.35;0.35;;;;;;;;;;5011090;28;20042;-84
2024/02/05 04:31:20;;;;;;;1.05;0.82;;;;;;;;;;4994682;28;20486;-84
2024/02/05 04:33:49;;;;;;;0.52;0.30;;;;;;;;;;5011355;28;20046;-83
2024/02/05 04:36:15;;;;;;;0.30;0.30;;;;;;;;;;4995395;28;20034;-84
2024/02/05 04:38:41;;;;;;;0.40;0.40;;;;;;;;;;4995090;28;20042;-83
2024/02/05 04:41:08;;;;;;;0.20;0.20;;;;;;;;;;4995154;28;20038;-83
2024/02/05 04:43:37;;;;;;;0.10;0.10;;;;;;;;;;4994885;28;20046;-83
2024/02/05 04:46:03;;;;;;;0.38;0.38;;;;;;;;;;4995467;28;20068;-84
2024/02/05 04:48:31;;;;;;;0.20;0.20;;;;;;;;;;4994688;28;20069;-83
2024/02/05 04:50:59;;;;;;;0.10;0.10;;;;;;;;;;5011140;28;20112;-83
2024/02/05 04:53:25;;;;;;;4.13;1.98;;;;;;;;;;5027487;28;20045;-82
2024/02/05 04:55:51;;;;;;;0.30;0.30;;;;;;;;;;4994636;28;20041;-83
2024/02/05 04:58:17;;;;;;;0.10;0.10;;;;;;;;;;5011266;28;20494;-83
2024/02/05 05:00:43;;;;;;;0.10;0.10;;;;;;;;;;5014970;28;20466;-83
2024/02/05 05:03:09;;;;;;;0.20;0.20;;;;;;;;;;5014780;28;20145;-82
2024/02/05 05:05:35;;;;;;;0.20;0.20;;;;;;;;;;4998406;28;20062;-83
2024/02/05 05:08:01;;;;;;;0.25;0.25;;;;;;;;;;5014671;28;20046;-84
2024/02/05 05:10:27;;;;;;;0.68;0.68;;;;;;;;;;4998280;28;20309;-83
2024/02/05 05:12:53;;;;;;;0.10;0.10;;;;;;;;;;4998332;28;20037;-83
2024/02/05 05:15:19;;;;;;;0.22;0.22;;;;;;;;;;4998352;28;20049;-84
2024/02/05 05:17:46;;;;;;;0.88;0.85;;;;;;;;;;4998291;28;20049;-84
2024/02/05 05:20:15;;;;;;;0.80;0.80;;;;;;;;;;4998113;28;20053;-84
2024/02/05 05:22:41;;;;;;;0.20;0.20;;;;;;;;;;4998422;28;20052;-84
2024/02/05 05:25:07;;;;;;;0.82;0.40;;;;;;;;;;4998258;28;20046;-84
2024/02/05 05:27:33;;;;;;;0.20;0.20;;;;;;;;;;4998282;28;20042;-84
2024/02/05 05:29:59;;;;;;;0.10;0.10;;;;;;;;;;5014216;28;20520;-84
2024/02/05 05:32:25;;;;;;;1.20;1.15;;;;;;;;;;4998049;28;20088;-84
2024/02/05 05:34:51;;;;;;;0.10;0.10;;;;;;;;;;4998008;28;20092;-84
2024/02/05 05:37:17;;;;;;;1.17;0.50;;;;;;;;;;4998002;28;20041;-85
2024/02/05 05:39:43;;;;;;;0.38;0.35;;;;;;;;;;5013950;28;20130;-83
2024/02/05 05:42:09;;;;;;;1.45;0.40;;;;;;;;;;5014013;28;20045;-83
2024/02/05 05:44:35;;;;;;;0.20;0.20;;;;;;;;;;4997897;28;20041;-84
2024/02/05 05:47:02;;;;;;;0.20;0.20;;;;;;;;;;5014184;28;20042;-84
2024/02/05 05:49:28;;;;;;;0.30;0.30;;;;;;;;;;4997717;28;20046;-83
2024/02/05 05:51:55;;;;;;;0.32;0.32;;;;;;;;;;4997693;28;20042;-84
2024/02/05 05:54:21;;;;;;;1.45;0.40;;;;;;;;;;4997628;28;20042;-83
2024/02/05 05:56:47;;;;;;;0.10;0.10;;;;;;;;;;4997437;28;20125;-84
2024/02/05 05:59:16;;;;;;;0.15;0.15;;;;;;;;;;4997521;28;20044;-84
2024/02/05 06:01:42;;;;;;;1.45;1.35;;;;;;;;;;4997356;28;20052;-84
2024/02/05 06:04:08;;;;;;;0.20;0.20;;;;;;;;;;5013780;28;20037;-83
2024/02/05 06:06:35;;;;;;;0.20;0.20;;;;;;;;;;4997236;28;20572;-82
2024/02/05 06:09:03;;;;;;;0.20;0.20;;;;;;;;;;4997387;28;20038;-84
2024/02/05 06:11:29;;;;;;;0.35;0.35;;;;;;;;;;4996019;28;20049;-84
2024/02/05 06:13:55;;;;;;;0.30;0.30;;;;;;;;;;5013646;28;20385;-83
2024/02/05 06:16:21;;;;;;;0.10;0.10;;;;;;;;;;4997196;28;20508;-84
2024/02/05 06:18:47;;;;;;;0.10;0.10;;;;;;;;;;4997391;28;20375;-84
2024/02/05 06:21:13;;;;;;;0.30;0.30;;;;;;;;;;5013657;28;20424;-83
2024/02/05 06:23:39;;;;;;;0.10;0.10;;;;;;;;;;4997126;28;20037;-84
2024/02/05 06:26:07;;;;;;;1.30;1.20;;;;;;;;;;4996977;28;20497;-83
2024/02/05 06:28:33;;;;;;;2.30;0.60;;;;;;;;;;5013277;28;20046;-83
2024/02/05 06:30:59;;;;;;;0.10;0.10;;;;;;;;;;4996915;28;20049;-84
2024/02/05 06:33:26;;;;;;;0.20;0.20;;;;;;;;;;4997126;28;20099;-84
2024/02/05 06:35:52;;;;;;;0.20;0.20;;;;;;;;;;4996841;28;20561;-83
2024/02/05 06:38:18;;;;;;;0.10;0.10;;;;;;;;;;5012979;28;20486;-84
2024/02/05 06:40:44;;;;;;;0.25;0.20;;;;;;;;;;4996993;28;20386;-84
2024/02/05 06:43:10;;;;;;;0.13;0.13;;;;;;;;;;4996847;28;20186;-85
2024/02/05 06:45:37;;;;;;;0.65;0.65;;;;;;;;;;4996695;28;20079;-83
2024/02/05 06:48:03;;;;;;;0.10;0.10;;;;;;;;;;5012970;28;20122;-83
2024/02/05 06:50:29;;;;;;;0.20;0.20;;;;;;;;;;4996430;28;20151;-85
2024/02/05 06:52:55;;;;;;;0.52;0.52;;;;;;;;;;4996520;28;20050;-84
2024/02/05 06:55:21;;;;;;;0.10;0.10;;;;;;;;;;4996732;28;20069;-86
2024/02/05 06:57:48;;;;;;;0.30;0.30;;;;;;;;;;4996404;28;20489;-82
2024/02/05 07:00:14;;;;;;;0.75;0.75;;;;;;;;;;4996525;28;20064;-85
2024/02/05 07:02:40;;;;;;;0.25;0.25;;;;;;;;;;4996489;28;20048;-84
2024/02/05 07:05:07;;;;;;;0.20;0.20;;;;;;;;;;4996316;28;20042;-83
2024/02/05 07:07:33;;;;;;;0.30;0.30;;;;;;;;;;4996038;28;20104;-84
2024/02/05 07:10:02;;;;;;;1.65;0.95;;;;;;;;;;4996033;28;20056;-84
2024/02/05 07:12:28;;;;;;;0.20;0.20;;;;;;;;;;5012354;28;20046;-84
2024/02/05 07:14:54;;;;;;;0.10;0.10;;;;;;;;;;4996294;28;20046;-84
2024/02/05 07:17:27;;;;;;;0.20;0.20;;;;;;;;;;5012191;28;20088;-84
2024/02/05 07:19:53;;;;;;;0.10;0.10;;;;;;;;;;5012295;28;20402;-84
2024/02/05 07:22:19;;;;;;;0.75;0.75;;;;;;;;;;4995590;28;20042;-84
2024/02/05 07:24:45;;;;;;;1.02;0.52;;;;;;;;;;4996105;28;20042;-84
2024/02/05 07:27:11;;;;;;;1.15;1.15;;;;;;;;;;4995941;28;20074;-82
2024/02/05 07:29:39;;;;;;;0.43;0.30;;;;;;;;;;4995647;28;20474;-83
2024/02/05 07:32:05;;;;;;;0.30;0.30;;;;;;;;;;5012005;28;20050;-83
2024/02/05 07:34:31;;;;;;;0.30;0.30;;;;;;;;;;5012230;28;20393;-84
2024/02/05 07:36:57;;;;;;;0.50;0.50;;;;;;;;;;5028396;28;20382;-84
2024/02/05 07:39:24;;;;;;;0.35;0.30;;;;;;;;;;4995774;28;20045;-83
2024/02/05 07:41:50;;;;;;;0.57;0.57;;;;;;;;;;5012044;28;20516;-83
2024/02/05 07:44:16;;;;;;;0.10;0.10;;;;;;;;;;4995788;28;20042;-85
2024/02/05 07:46:42;;;;;;;0.20;0.20;;;;;;;;;;5012185;28;20430;-83
2024/02/05 07:49:08;;;;;;;0.20;0.20;;;;;;;;;;4995359;28;20042;-83
2024/02/05 07:51:34;;;;;;;0.20;0.20;;;;;;;;;;5011792;28;20065;-83
2024/02/05 07:54:00;;;;;;;0.10;0.10;;;;;;;;;;4995361;28;20080;-83
2024/02/05 07:56:26;;;;;;;0.22;0.22;;;;;;;;;;4995348;28;20489;-83
2024/02/05 07:58:52;;;;;;;0.10;0.10;;;;;;;;;;5012001;28;20490;-85
2024/02/05 08:01:19;;;;;;;0.10;0.10;;;;;;;;;;5011657;28;20041;-86
2024/02/05 08:03:45;;;;;;;0.32;0.32;;;;;;;;;;4995434;28;20570;-86
2024/02/05 08:06:18;;;;;;;0.38;0.30;;;;;;;;;;4994957;28;20056;-86
2024/02/05 08:08:44;;;;;;;0.20;0.20;;;;;;;;;;5011548;28;20046;-85
2024/02/05 08:11:10;;;;;;;0.15;0.15;;;;;;;;;;4995377;28;20050;-86
2024/02/05 08:13:36;;;;;;;0.20;0.20;;;;;;;;;;4992630;28;20045;-85
2024/02/05 08:16:02;;;;;;;0.10;0.10;;;;;;;;;;5011020;28;20037;-86
2024/02/05 08:18:28;;;;;;;0.47;0.47;;;;;;;;;;4999050;28;20049;-84
2024/02/05 08:20:54;;;;;;;0.20;0.20;;;;;;;;;;5014987;28;20404;-86
2024/02/05 08:23:20;;;;;;;1.00;0.60;;;;;;;;;;5014700;28;20458;-86
2024/02/05 08:25:46;;;;;;;0.45;0.45;;;;;;;;;;5014604;28;20128;-86
2024/02/05 08:28:12;;;;;;;0.20;0.20;;;;;;;;;;5014239;28;20042;-86
2024/02/05 08:30:38;;;;;;;0.17;0.17;;;;;;;;;;5014523;28;20037;-87
2024/02/05 08:33:04;;;;;;;0.57;0.57;;;;;;;;;;5014482;28;20041;-88
2024/02/05 08:35:30;;;;;;;0.35;0.35;;;;;;;;;;5015476;28;20045;-85
2024/02/05 08:37:56;;;;;;;0.10;0.10;;;;;;;;;;5031089;28;20042;-85
2024/02/05 08:40:22;;;;;;;0.10;0.10;;;;;;;;;;5014225;28;20056;-87
2024/02/05 08:42:49;;;;;;;0.20;0.20;;;;;;;;;;5014819;28;20045;-90
2024/02/05 08:45:18;;;;;;;0.20;0.20;;;;;;;;;;5014425;28;20053;-86
2024/02/05 08:47:44;;;;;;;2.92;0.50;;;;;;;;;;5014670;28;20042;-85
2024/02/05 08:50:10;;;;;;;0.20;0.20;;;;;;;;;;5030261;28;20089;-85
2024/02/05 08:52:36;;;;;;;0.52;0.28;;;;;;;;;;5014228;28;20072;-88
2024/02/05 08:55:03;;;;;;;0.10;0.10;;;;;;;;;;5030435;28;20103;-84
2024/02/05 08:57:29;;;;;;;2.45;0.73;;;;;;;;;;5014756;28;20042;-84
2024/02/05 08:59:55;;;;;;;0.13;0.13;;;;;;;;;;5013841;28;20133;-84
2024/02/05 09:02:21;;;;;;;2.13;1.05;;;;;;;;;;5014165;28;20481;-84
2024/02/05 09:04:48;;;;;;;0.20;0.20;;;;;;;;;;5030341;28;20125;-84
2024/02/05 09:07:14;;;;;;;0.15;0.15;;;;;;;;;;5014243;28;20095;-84
2024/02/05 09:09:41;;;;;;;0.30;0.30;;;;;;;;;;5014029;28;20100;-83
2024/02/05 09:12:07;;;;;;;0.10;0.10;;;;;;;;;;5030350;28;20121;-83
2024/02/05 09:14:34;;;;;;;0.20;0.20;;;;;;;;;;5013818;28;20503;-84
2024/02/05 09:17:00;;;;;;;0.13;0.13;;;;;;;;;;5014129;28;20047;-84
2024/02/05 09:19:27;;;;;;;0.13;0.13;;;;;;;;;;5027323;28;20041;-84
2024/02/05 09:21:54;;;;;;;0.10;0.10;;;;;;;;;;5010150;28;20425;-84
2024/02/05 09:24:20;;;;;;;3.20;0.98;;;;;;;;;;5019328;28;20038;-84
2024/02/05 09:26:46;;;;;;;0.20;0.20;;;;;;;;;;5010937;28;20366;-85
2024/02/05 09:29:13;;;;;;;0.20;0.20;;;;;;;;;;5010220;28;20038;-85
2024/02/05 09:31:39;;;;;;;0.10;0.10;;;;;;;;;;5009263;28;20037;-86
2024/02/05 09:34:05;;;;;;;2.40;1.50;;;;;;;;;;5026996;28;20041;-85
2024/02/05 09:36:31;;;;;;;0.20;0.20;;;;;;;;;;5026681;28;20050;-85
2024/02/05 09:38:58;;;;;;;0.70;0.70;;;;;;;;;;5010449;28;20038;-87
2024/02/05 09:41:25;;;;;;;0.20;0.20;;;;;;;;;;4990823;28;20050;-85
2024/02/05 09:43:51;;;;;;;0.20;0.20;;;;;;;;;;5026513;28;20046;-87
2024/02/05 09:46:19;;;;;;;0.28;0.28;;;;;;;;;;4997563;28;20057;-86
2024/02/05 09:48:45;;;;;;;0.13;0.13;;;;;;;;;;5013973;28;20077;-86
2024/02/05 09:51:11;;;;;;;0.17;0.17;;;;;;;;;;4997857;28;20034;-86
2024/02/05 09:53:37;;;;;;;0.20;0.20;;;;;;;;;;4997631;28;20038;-86
2024/02/05 09:56:03;;;;;;;0.20;0.20;;;;;;;;;;4997820;28;20045;-85
2024/02/05 09:58:29;;;;;;;0.10;0.10;;;;;;;;;;4997473;28;20042;-86
2024/02/05 10:00:56;;;;;;;0.20;0.20;;;;;;;;;;4997505;28;20100;-86
2024/02/05 10:03:22;;;;;;;0.20;0.20;;;;;;;;;;4997716;28;20049;-89
2024/02/05 10:05:49;;;;;;;0.30;0.30;;;;;;;;;;4997325;28;20108;-86
2024/02/05 10:08:15;;;;;;;0.20;0.20;;;;;;;;;;4997643;28;20119;-86
2024/02/05 10:10:41;;;;;;;0.28;0.28;;;;;;;;;;4997336;28;20041;-86
2024/02/05 10:13:07;;;;;;;0.32;0.32;;;;;;;;;;4997405;28;20057;-86
2024/02/05 10:15:33;;;;;;;0.17;0.17;;;;;;;;;;4997149;28;20037;-86
2024/02/05 10:17:59;;;;;;;0.20;0.20;;;;;;;;;;4997577;28;20045;-87
2024/02/05 10:20:28;;;;;;;0.20;0.20;;;;;;;;;;4996982;28;20564;-86
2024/02/05 10:22:54;;;;;;;1.77;1.00;;;;;;;;;;4997026;28;20083;-86
2024/02/05 10:25:20;;;;;;;3.05;0.90;;;;;;;;;;4997044;28;20479;-86
2024/02/05 10:27:46;;;;;;;0.40;0.25;;;;;;;;;;5029834;28;20108;-86
2024/02/05 10:30:16;;;;;;;0.25;0.25;;;;;;;;;;5012246;28;20042;-86
2024/02/05 10:32:42;;;;;;;0.20;0.20;;;;;;;;;;4996904;28;20042;-86
2024/02/05 10:35:08;;;;;;;0.15;0.15;;;;;;;;;;5013087;28;20685;-86
2024/02/05 10:37:34;;;;;;;0.10;0.10;;;;;;;;;;4996719;28;20040;-86
2024/02/05 10:40:04;;;;;;;0.10;0.10;;;;;;;;;;4996550;28;20034;-85
2024/02/05 10:42:31;;;;;;;0.10;0.10;;;;;;;;;;4996752;28;20037;-86
2024/02/05 10:44:57;;;;;;;0.20;0.20;;;;;;;;;;4996560;28;20042;-86
2024/02/05 10:47:24;;;;;;;0.20;0.20;;;;;;;;;;4996529;28;20042;-86
2024/02/05 10:49:50;;;;;;;0.20;0.20;;;;;;;;;;4996514;28;20053;-87
2024/02/05 10:52:16;;;;;;;0.10;0.10;;;;;;;;;;4996409;28;20069;-87
2024/02/05 10:54:42;;;;;;;0.20;0.20;;;;;;;;;;4996298;28;20034;-87
2024/02/05 10:57:09;;;;;;;0.20;0.20;;;;;;;;;;4995706;28;20034;-86
2024/02/05 10:59:35;;;;;;;0.10;0.10;;;;;;;;;;4994668;28;20520;-82
2024/02/05 11:02:08;;;;;;;0.10;0.10;;;;;;;;;;5028310;28;20042;-84
2024/02/05 11:04:34;;;;;;;0.10;0.10;;;;;;;;;;5012745;28;20096;-83
2024/02/05 11:07:00;;;;;;;0.28;0.28;;;;;;;;;;5000089;28;20343;-84
2024/02/05 11:09:28;;;;;;;0.10;0.10;;;;;;;;;;4997483;28;20046;-85
2024/02/05 11:11:56;;;;;;;0.10;0.10;;;;;;;;;;5000254;28;20041;-91
2024/02/05 11:14:22;;;;;;;0.10;0.10;;;;;;;;;;4996208;28;20487;-85
2024/02/05 11:16:48;;;;;;;0.20;0.20;;;;;;;;;;4996076;28;20049;-85
2024/02/05 11:19:15;;;;;;;0.10;0.10;;;;;;;;;;4995774;28;20145;-85
2024/02/05 11:21:46;;;;;;;0.20;0.20;;;;;;;;;;5012020;28;20100;-86
2024/02/05 11:24:16;;;;;;;1.00;0.35;;;;;;;;;;4994154;28;20457;-85
2024/02/05 11:26:42;;;;;;;0.20;0.20;;;;;;;;;;4996259;28;20054;-84
2024/02/05 11:29:08;;;;;;;0.20;0.20;;;;;;;;;;4995629;28;20517;-84
2024/02/05 11:31:41;;;;;;;0.25;0.25;;;;;;;;;;5010589;28;20044;-85
2024/02/05 11:34:07;;;;;;;0.20;0.20;;;;;;;;;;4994922;28;20072;-84
2024/02/05 11:36:33;;;;;;;3.17;0.40;;;;;;;;;;4995509;28;20145;-84
2024/02/05 11:39:00;;;;;;;0.20;0.20;;;;;;;;;;4995582;28;20477;-84
2024/02/05 11:41:26;;;;;;;0.20;0.20;;;;;;;;;;4995352;28;20160;-84
2024/02/05 11:44:01;;;;;;;0.30;0.30;;;;;;;;;;4995704;28;20054;-84
2024/02/05 11:46:27;;;;;;;0.20;0.20;;;;;;;;;;4995337;28;20048;-85
2024/02/05 11:48:55;;;;;;;0.20;0.20;;;;;;;;;;4995195;28;20092;-84
2024/02/05 11:51:21;;;;;;;0.40;0.40;;;;;;;;;;4995191;28;20034;-84
2024/02/05 11:53:48;;;;;;;0.10;0.10;;;;;;;;;;4995661;28;20131;-84
2024/02/05 11:56:14;;;;;;;0.43;0.40;;;;;;;;;;5011473;28;20038;-84
2024/02/05 11:58:43;;;;;;;0.10;0.10;;;;;;;;;;4995370;28;20037;-84
2024/02/05 12:01:09;;;;;;;0.25;0.25;;;;;;;;;;4995150;28;20383;-84
2024/02/05 12:03:36;;;;;;;0.10;0.10;;;;;;;;;;4995402;28;20093;-84
2024/02/05 12:06:03;;;;;;;0.20;0.20;;;;;;;;;;4994941;28;20057;-84
2024/02/05 12:08:29;;;;;;;0.20;0.20;;;;;;;;;;5010346;28;20050;-84
2024/02/05 12:10:55;;;;;;;0.10;0.10;;;;;;;;;;5011202;28;20038;-85
2024/02/05 12:13:21;;;;;;;0.10;0.10;;;;;;;;;;4994933;28;20037;-84
2024/02/05 12:15:47;;;;;;;0.30;0.30;;;;;;;;;;4995368;28;20441;-85
2024/02/05 12:18:13;;;;;;;0.20;0.20;;;;;;;;;;4994937;28;20049;-85
2024/02/05 12:20:39;;;;;;;0.20;0.20;;;;;;;;;;4994754;28;20124;-85
2024/02/05 12:23:05;;;;;;;1.00;1.00;;;;;;;;;;4994882;28;20087;-84
2024/02/05 12:25:31;;;;;;;0.20;0.20;;;;;;;;;;4995025;28;20244;-84
2024/02/05 12:27:58;;;;;;;0.10;0.10;;;;;;;;;;4994740;28;20209;-84
2024/02/05 12:30:24;;;;;;;0.10;0.10;;;;;;;;;;5011297;28;20409;-84
2024/02/05 12:32:57;;;;;;;0.10;0.10;;;;;;;;;;4994674;28;20083;-85
2024/02/05 12:35:23;;;;;;;0.20;0.20;;;;;;;;;;4994955;28;20486;-86
2024/02/05 12:37:50;;;;;;;0.20;0.20;;;;;;;;;;4994868;28;20034;-85
2024/02/05 12:40:16;;;;;;;0.20;0.20;;;;;;;;;;4994757;28;20092;-86
2024/02/05 12:42:42;;;;;;;0.20;0.20;;;;;;;;;;4995279;28;20458;-86
2024/02/05 12:45:10;;;;;;;0.35;0.35;;;;;;;;;;4994973;28;20041;-83
2024/02/05 12:47:37;;;;;;;0.35;0.35;;;;;;;;;;5010902;28;20096;-84
2024/02/05 12:50:03;;;;;;;0.20;0.20;;;;;;;;;;4994480;28;20122;-83
2024/02/05 12:52:29;;;;;;;0.28;0.28;;;;;;;;;;5010845;28;20510;-83
2024/02/05 12:54:57;;;;;;;0.20;0.20;;;;;;;;;;4994698;28;20041;-85
2024/02/05 12:57:24;;;;;;;0.10;0.10;;;;;;;;;;4994540;28;20062;-84
2024/02/05 12:59:54;;;;;;;0.13;0.13;;;;;;;;;;4994942;28;20042;-84
2024/02/05 13:02:20;;;;;;;0.10;0.10;;;;;;;;;;4995097;28;20429;-84
2024/02/05 13:04:46;;;;;;;0.35;0.35;;;;;;;;;;5011138;28;20472;-84
2024/02/05 13:07:17;;;;;;;0.10;0.10;;;;;;;;;;4994464;28;20054;-83
2024/02/05 13:09:43;;;;;;;0.20;0.20;;;;;;;;;;5010595;28;20060;-84
2024/02/05 13:12:09;;;;;;;0.10;0.10;;;;;;;;;;5010567;28;20049;-83
2024/02/05 13:14:35;;;;;;;0.30;0.30;;;;;;;;;;4994421;28;20038;-83
2024/02/05 13:17:04;;;;;;;0.20;0.20;;;;;;;;;;5010573;28;20046;-84
2024/02/05 13:19:32;;;;;;;0.15;0.15;;;;;;;;;;4995745;28;20046;-84
2024/02/05 13:21:58;;;;;;;0.20;0.20;;;;;;;;;;4998409;28;20046;-84
2024/02/05 13:24:24;;;;;;;0.20;0.20;;;;;;;;;;5014346;28;20042;-84
2024/02/05 13:26:51;;;;;;;0.20;0.20;;;;;;;;;;4997997;28;20046;-84
2024/02/05 13:29:18;;;;;;;0.10;0.10;;;;;;;;;;5015791;28;20046;-85
2024/02/05 13:31:46;;;;;;;0.85;0.85;;;;;;;;;;5015526;28;20038;-84
2024/02/05 13:34:13;;;;;;;0.15;0.15;;;;;;;;;;4997885;28;20088;-84
2024/02/05 13:36:39;;;;;;;0.10;0.10;;;;;;;;;;4997999;28;20037;-85
2024/02/05 13:39:06;;;;;;;0.20;0.20;;;;;;;;;;4998137;28;20081;-84
2024/02/05 13:41:38;;;;;;;0.10;0.10;;;;;;;;;;4998133;28;20331;-85
2024/02/05 13:44:05;;;;;;;0.20;0.20;;;;;;;;;;5014036;28;20057;-86
2024/02/05 13:46:31;;;;;;;0.10;0.10;;;;;;;;;;4997684;28;20041;-86
2024/02/05 13:48:57;;;;;;;0.35;0.20;;;;;;;;;;4997585;28;20042;-86
2024/02/05 13:51:23;;;;;;;0.57;0.20;;;;;;;;;;4997599;28;20091;-82
2024/02/05 13:53:49;;;;;;;0.20;0.20;;;;;;;;;;4997511;28;20045;-85
2024/02/05 13:56:15;;;;;;;0.30;0.30;;;;;;;;;;4997598;28;20038;-85
2024/02/05 13:58:41;;;;;;;0.10;0.10;;;;;;;;;;4997424;28;20038;-85
2024/02/05 14:01:08;;;;;;;0.40;0.40;;;;;;;;;;4997345;28;20248;-85
2024/02/05 14:03:34;;;;;;;0.30;0.30;;;;;;;;;;4997439;28;20048;-85
2024/02/05 14:06:00;;;;;;;0.20;0.20;;;;;;;;;;4997144;28;20637;-85
2024/02/05 14:08:26;;;;;;;0.50;0.50;;;;;;;;;;4997142;28;20551;-85
2024/02/05 14:10:52;;;;;;;0.20;0.20;;;;;;;;;;4997372;28;20073;-85
2024/02/05 14:13:18;;;;;;;0.10;0.10;;;;;;;;;;5013542;28;20048;-86
2024/02/05 14:15:44;;;;;;;0.50;0.50;;;;;;;;;;4997184;28;20038;-86
2024/02/05 14:18:11;;;;;;;0.73;0.30;;;;;;;;;;5013500;28;20182;-85
2024/02/05 14:20:37;;;;;;;0.40;0.40;;;;;;;;;;5013511;28;20077;-85
2024/02/05 14:23:03;;;;;;;0.10;0.10;;;;;;;;;;4997087;28;20080;-85
2024/02/05 14:25:29;;;;;;;0.20;0.20;;;;;;;;;;5013217;28;20049;-85
2024/02/05 14:27:55;;;;;;;0.10;0.10;;;;;;;;;;5013467;28;20429;-85
2024/02/05 14:30:22;;;;;;;0.13;0.13;;;;;;;;;;4997637;28;20061;-87
2024/02/05 14:32:48;;;;;;;0.22;0.22;;;;;;;;;;4996264;28;20045;-88
2024/02/05 14:35:16;;;;;;;0.20;0.20;;;;;;;;;;5004843;28;20121;-91
2024/02/05 14:37:42;;;;;;;0.40;0.40;;;;;;;;;;5004104;28;20042;-92